Flight Track Log - Related Links

Times and Time Zones

All times are in EDT time to prevent confusion due to time zone crossing. See the SWA216 flight status page for this flight to view local times or setup timezone preferences in your user account.

Time Position Orientation Groundspeed Altitude Reporting Facility
EDT Latitude Longitude Course Direction KTS MPH feet Rate Location/Type
Thu 07:34:37 PM 28.0000 -82.5333 360° North 159 183 1,000  Level Tampa TRACON
Thu 07:35:32 PM 28.0500 -82.5333 360° North 234 269 2,900 2,521 Climbing Tampa TRACON
Thu 07:37:26 PM 28.1703 -82.5700 345° North 285 328 8,100 2,690 Climbing Jacksonville Center
Thu 07:38:26 PM 28.2436 -82.5981 341° North 278 320 10,700 2,050 Climbing Jacksonville Center
Thu 07:39:26 PM 28.3333 -82.6236 346° North 300 345 12,200 2,050 Climbing Jacksonville Center
Thu 07:40:26 PM 28.4294 -82.6567 343° North 334 384 14,800 2,350 Climbing Jacksonville Center
Thu 07:41:26 PM 28.5253 -82.6917 342° North 352 405 16,900 2,100 Climbing Jacksonville Center
Thu 07:42:26 PM 28.6319 -82.7153 349° North 372 428 19,000 2,000 Climbing Jacksonville Center
Thu 07:43:26 PM 28.7489 -82.7292 354° North 379 436 20,900 1,900 Climbing Jacksonville Center
Thu 07:44:26 PM 28.8553 -82.7481 351° North 386 444 22,800 1,650 Climbing Jacksonville Center
Thu 07:45:26 PM 28.9658 -82.7739 348° North 391 450 24,200 1,400 Climbing Jacksonville Center
Thu 07:46:26 PM 29.0642 -82.8450 328° Northwest 439 505 25,600 1,500 Climbing Jacksonville Center
Thu 07:47:26 PM 29.1581 -82.9164 326° Northwest 434 499 27,200 1,550 Climbing Jacksonville Center
Thu 07:48:26 PM 29.2497 -82.9900 325° Northwest 421 484 28,700 1,700 Climbing Jacksonville Center
Thu 07:49:26 PM 29.3417 -83.0642 325° Northwest 416 479 30,600 1,600 Climbing Jacksonville Center
Thu 07:50:26 PM 29.4269 -83.1358 324° Northwest 398 458 31,900 1,050 Climbing Jacksonville Center
Thu 07:51:26 PM 29.5144 -83.2053 325° Northwest 398 458 32,700 1,100 Climbing Jacksonville Center
Thu 07:52:26 PM 29.6083 -83.2533 336° Northwest 392 451 34,100 1,000 Climbing Jacksonville Center
Thu 07:53:26 PM 29.7042 -83.2894 342° North 371 427 34,700 550 Climbing Jacksonville Center
Thu 07:54:26 PM 29.8086 -83.3258 343° North 376 433 35,200 600 Climbing Jacksonville Center
Thu 07:55:26 PM 29.9108 -83.3647 342° North 376 433 35,900 400 Climbing Jacksonville Center
Thu 07:56:26 PM 30.0128 -83.3986 344° North 382 440 36,000 50 Climbing Jacksonville Center
Thu 07:57:26 PM 30.1150 -83.4353 343° North 382 440 36,000  Level Jacksonville Center
Thu 07:58:26 PM 30.2150 -83.4719 342° North 382 440 36,000  Level Jacksonville Center
Thu 07:59:26 PM 30.3172 -83.5111 342° North 382 440 36,000  Level Jacksonville Center
Thu 08:00:26 PM 30.4194 -83.5478 343° North 382 440 36,000  Level Jacksonville Center
Thu 08:01:26 PM 30.5214 -83.5847 343° North 382 440 36,000  Level Jacksonville Center
Thu 08:02:26 PM 30.6319 -83.6264 342° North 382 440 36,000  Level Jacksonville Center
Thu 08:03:26 PM 30.7319 -83.6636 342° North 382 440 36,000  Level Jacksonville Center
Thu 08:04:26 PM 30.8361 -83.7031 342° North 382 440 36,000  Level Jacksonville Center
Thu 08:05:26 PM 30.9403 -83.7403 343° North 382 440 36,000  Level Jacksonville Center
Thu 08:06:26 PM 31.0422 -83.7775 343° North 382 440 36,000  Level Jacksonville Center
Thu 08:07:26 PM 31.1483 -83.8175 342° North 382 440 36,000  Level Jacksonville Center
Thu 08:08:26 PM 31.2483 -83.8572 341° North 382 440 36,000  Level Jacksonville Center
Thu 08:10:53 PM 31.5025 -83.9536 342° North 391 450 36,000  Level Atlanta Center
Thu 08:11:53 PM 31.6108 -83.9803 348° North 391 450 36,000  Level Atlanta Center
Thu 08:12:53 PM 31.7175 -84.0047 349° North 391 450 36,000  Level Atlanta Center
Thu 08:13:53 PM 31.8281 -84.0292 349° North 397 457 36,000  Level Atlanta Center
Thu 08:14:53 PM 31.9344 -84.0511 350° North 397 457 36,000  Level Atlanta Center
Thu 08:15:53 PM 32.0431 -84.0756 349° North 392 451 36,000  Level Atlanta Center
Thu 08:16:53 PM 32.1494 -84.1003 349° North 392 451 36,000  Level Atlanta Center
Thu 08:17:53 PM 32.2581 -84.1247 349° North 392 451 36,000  Level Atlanta Center
Thu 08:18:53 PM 32.3686 -84.1519 348° North 392 451 36,000  Level Atlanta Center
Thu 08:19:53 PM 32.4769 -84.1767 349° North 392 451 36,000  Level Atlanta Center
Thu 08:20:53 PM 32.5856 -84.1992 350° North 392 451 36,000  Level Atlanta Center
Thu 08:21:53 PM 32.6817 -84.2239 348° North 392 451 36,000  Level Atlanta Center
Thu 08:22:53 PM 32.8006 -84.2586 346° North 392 451 36,000  Level Atlanta Center
Thu 08:23:53 PM 32.9089 -84.2839 349° North 392 451 36,000  Level Atlanta Center
Thu 08:24:53 PM 33.0153 -84.3064 350° North 399 459 36,000  Level Atlanta Center
Thu 08:25:53 PM 33.1281 -84.3317 349° North 393 452 36,000  Level Atlanta Center
Thu 08:26:53 PM 33.2344 -84.3567 349° North 393 452 36,000  Level Atlanta Center
Thu 08:27:53 PM 33.3325 -84.3794 349° North 398 458 36,000  Level Atlanta Center
Thu 08:28:53 PM 33.4408 -84.4047 349° North 393 452 36,000  Level Atlanta Center
Thu 08:29:53 PM 33.5472 -84.4303 349° North 393 452 36,000  Level Atlanta Center
Thu 08:30:53 PM 33.6683 -84.4581 349° North 393 452 36,000  Level Atlanta Center
Thu 08:31:53 PM 33.7789 -84.4836 349° North 399 459 36,000  Level Atlanta Center
Thu 08:32:53 PM 33.8894 -84.5092 349° North 399 459 36,000  Level Atlanta Center
Thu 08:33:53 PM 34.0000 -84.5350 349° North 399 459 36,000  Level Atlanta Center
Thu 08:34:53 PM 34.1103 -84.5656 347° North 399 459 36,000  Level Atlanta Center
Thu 08:35:53 PM 34.2250 -84.5889 350° North 411 473 36,000  Level Atlanta Center
Thu 08:36:53 PM 34.3231 -84.6122 349° North 411 473 36,000  Level Atlanta Center
Thu 08:37:53 PM 34.4336 -84.6406 348° North 411 473 36,000  Level Atlanta Center
Thu 08:38:53 PM 34.5419 -84.6642 350° North 406 467 36,000  Level Atlanta Center
Thu 08:39:53 PM 34.6503 -84.6903 349° North 401 461 36,000  Level Atlanta Center
Thu 08:40:53 PM 34.7692 -84.7239 347° North 396 456 36,000  Level Atlanta Center
Thu 08:41:53 PM 34.8794 -84.7503 349° North 396 456 36,000  Level Atlanta Center
Thu 08:42:53 PM 34.9900 -84.7792 348° North 396 456 36,000  Level Atlanta Center
Thu 08:43:53 PM 35.1025 -84.8056 349° North 401 461 36,000  Level Atlanta Center
Thu 08:44:53 PM 35.2150 -84.8344 348° North 401 461 36,000  Level Atlanta Center
Thu 08:45:53 PM 35.3253 -84.8611 349° North 407 468 36,000  Level Atlanta Center
Thu 08:46:53 PM 35.4378 -84.8900 348° North 407 468 36,000  Level Atlanta Center
Thu 08:47:53 PM 35.5503 -84.9194 348° North 412 474 36,000  Level Atlanta Center
Thu 08:50:19 PM 35.8050 -84.9822 349° North 409 471 36,000  Level Indianapolis Center
Thu 08:51:20 PM 35.9194 -85.0094 349° North 411 473 36,000  Level Indianapolis Center
Thu 08:52:22 PM 36.0506 -85.0425 348° North 410 472 36,000  Level Indianapolis Center
Thu 08:53:23 PM 36.1622 -85.0703 349° North 408 470 36,000  Level Indianapolis Center
Thu 08:54:25 PM 36.2736 -85.0994 348° North 407 468 36,000  Level Indianapolis Center
Thu 08:55:27 PM 36.3864 -85.1269 349° North 412 474 36,000  Level Indianapolis Center
Thu 08:56:28 PM 36.4986 -85.1569 348° North 413 475 36,000  Level Indianapolis Center
Thu 08:57:30 PM 36.6117 -85.1856 349° North 413 475 36,000 341 Level Indianapolis Center
Thu 08:58:31 PM 36.7253 -85.2092 351° North 415 478 36,700 488 Climbing Indianapolis Center
Thu 08:59:33 PM 36.8606 -85.2372 351° North 411 473 37,000 146 Climbing Indianapolis Center
Thu 09:00:34 PM 36.9717 -85.2606 350° North 405 466 37,000  Level Indianapolis Center
Thu 09:01:36 PM 37.0808 -85.2853 350° North 404 465 37,000  Level Indianapolis Center
Thu 09:02:37 PM 37.1933 -85.3075 351° North 406 467 37,000  Level Indianapolis Center
Thu 09:03:39 PM 37.3058 -85.3325 350° North 407 468 37,000  Level Indianapolis Center
Thu 09:04:40 PM 37.4192 -85.3561 351° North 411 473 37,000  Level Indianapolis Center
Thu 09:05:42 PM 37.5297 -85.3808 350° North 406 467 37,000  Level Indianapolis Center
Thu 09:06:44 PM 37.6417 -85.4058 350° North 404 465 37,000  Level Indianapolis Center
Thu 09:07:45 PM 37.7744 -85.4344 350° North 411 473 37,000  Level Indianapolis Center
Thu 09:08:46 PM 37.8808 -85.4567 351° North 411 473 37,000  Level Indianapolis Center
Thu 09:09:48 PM 37.9933 -85.4817 350° North 409 471 37,000  Level Indianapolis Center
Thu 09:10:49 PM 38.1047 -85.5053 351° North 407 468 37,000 -293 Level Indianapolis Center
Thu 09:11:51 PM 38.2181 -85.5314 350° North 410 472 36,400 -780 Descending Indianapolis Center
Thu 09:12:52 PM 38.3306 -85.5544 351° North 410 472 35,400 -976 Descending Indianapolis Center
Thu 09:13:54 PM 38.4436 -85.5811 350° North 412 474 34,400 -1,024 Descending Indianapolis Center
Thu 09:14:55 PM 38.5811 -85.6119 350° North 416 479 33,300 -927 Descending Indianapolis Center
Thu 09:15:57 PM 38.6783 -85.6328 351° North 420 483 32,500 -927 Descending Indianapolis Center
Thu 09:16:58 PM 38.8200 -85.6647 350° North 430 495 31,400 -976 Descending Indianapolis Center
Thu 09:18:00 PM 38.9389 -85.6919 350° North 435 501 30,500 -927 Descending Indianapolis Center
Thu 09:19:01 PM 39.0597 -85.7197 350° North 441 507 29,500 -927 Descending Indianapolis Center
Thu 09:20:03 PM 39.1803 -85.7467 350° North 441 507 28,600 -732 Descending Indianapolis Center
Thu 09:21:04 PM 39.2997 -85.7731 350° North 439 505 28,000 -293 Descending Indianapolis Center
Thu 09:22:06 PM 39.4167 -85.7994 350° North 433 498 28,000  Level Indianapolis Center
Thu 09:23:07 PM 39.5336 -85.8269 350° North 431 496 28,000  Level Indianapolis Center
Thu 09:24:09 PM 39.6739 -85.8581 350° North 431 496 28,000  Level Indianapolis Center
Thu 09:25:10 PM 39.7914 -85.8858 350° North 434 499 28,000 -488 Level Indianapolis Center
Thu 09:26:12 PM 39.9097 -85.9128 350° North 437 503 27,000 -1,854 Descending Indianapolis Center
Thu 09:27:13 PM 40.0250 -85.9397 350° North 430 495 24,200 -1,463 Descending Indianapolis Center
Thu 09:28:15 PM 40.1364 -85.9658 350° North 414 476 24,000 -125 Descending Indianapolis Center
Thu 09:28:49 PM 40.2033 -85.9789 352° North 411 473 24,000  Level Chicago Center
Thu 09:29:51 PM 40.3144 -86.0081 349° North 410 472 24,000 -435 Level Chicago Center
Thu 09:30:53 PM 40.4408 -86.0728 339° North 410 472 23,100 -871 Descending Chicago Center
Thu 09:31:55 PM 40.5467 -86.1350 336° Northwest 416 479 22,200 -919 Descending Chicago Center
Thu 09:32:57 PM 40.6547 -86.1981 336° Northwest 426 490 21,200 -1,597 Descending Chicago Center
Thu 09:33:59 PM 40.7592 -86.2614 335° Northwest 425 489 18,900 -2,177 Descending Chicago Center
Thu 09:35:01 PM 40.8631 -86.3239 336° Northwest 416 479 16,700 -2,855 Descending Chicago Center
Thu 09:36:03 PM 40.9753 -86.3883 337° Northwest 372 428 13,000 -2,710 Descending Chicago Center
Thu 09:37:05 PM 41.0653 -86.4608 329° Northwest 378 435 11,100 -1,403 Descending Chicago Center
Thu 09:38:07 PM 41.1342 -86.5636 312° West 377 434 10,100 -484 Descending Chicago Center
Thu 09:39:09 PM 41.2003 -86.6658 311° West 365 420 10,100  Level Chicago Center
Thu 09:40:11 PM 41.2586 -86.7586 310° West 348 400 10,100 -48 Level Chicago Center
Thu 09:41:13 PM 41.3317 -86.8708 311° West 339 390 10,000  Descending Chicago Center
Thu 09:42:15 PM 41.3861 -86.9558 311° West 308 354 10,100 -629 Climbing Chicago Center
Thu 09:43:17 PM 41.4361 -87.0347 310° West 284 327 8,700 -1,452 Descending Chicago Center
Thu 09:44:19 PM 41.4736 -87.1281 298° West 300 345 7,100 -1,268 Descending Chicago Center
Thu 09:45:20 PM 41.4947 -87.2247 286° West 279 321 6,100 -1,073 Descending Chicago Center
Thu 09:46:22 PM 41.5247 -87.3356 290° West 267 307 4,900 -1,065 Descending Chicago Center
Thu 09:47:24 PM 41.5494 -87.4239 291° West 261 300 3,900 -435 Descending Chicago Center
Thu 09:48:26 PM 41.5728 -87.5156 289° West 261 300 4,000 -726 Climbing Chicago Center
Thu 09:49:28 PM 41.6067 -87.5978 299° West 258 297 2,400 -726 Descending Chicago Center
Thu 09:50:30 PM 41.6422 -87.6781 301° West 258 297 2,500 49 Climbing Chicago Center
Thu 09:51:31 PM 41.6769 -87.7589 300° West 232 267 2,500 -293 Level Chicago Center
Thu 09:52:33 PM 41.7111 -87.8072 313° West 201 231 1,900 -532 Descending Chicago Center
Thu 09:53:35 PM 41.7503 -87.7983 10° North 167 192 1,400 -484 Descending Chicago Center
Thu 09:54:37 PM 41.7781 -87.7625 44° Northeast 148 170 900 -484 Descending Chicago Center
Thu 09:56:00 PM 41.7833 -87.7500 20° North  Level FlightAware Approximate

Login

Don't have an account? Register now (free) for customized features, flight alerts, and more!